createdAt,value
2023-03-01T00:03:11.380Z,0.40
2023-03-01T00:08:13.316Z,0.40
2023-03-01T00:13:15.488Z,0.50
2023-03-01T00:18:17.239Z,0.40
2023-03-01T00:23:19.295Z,0.50
2023-03-01T00:28:21.431Z,0.50
2023-03-01T00:33:23.266Z,0.50
2023-03-01T00:38:25.058Z,0.50
2023-03-01T00:43:27.637Z,0.60
2023-03-01T00:48:29.409Z,0.60
2023-03-01T00:53:31.144Z,0.60
2023-03-01T00:58:33.034Z,0.60
2023-03-01T01:03:34.783Z,0.60
2023-03-01T01:08:36.579Z,0.60
2023-03-01T01:13:39.277Z,0.50
2023-03-01T01:18:42.214Z,0.60
2023-03-01T01:23:45.471Z,0.50
2023-03-01T01:28:48.147Z,0.60
2023-03-01T01:33:50.298Z,0.60
2023-03-01T01:38:52.427Z,0.60
2023-03-01T01:44:17.890Z,0.60
2023-03-01T01:49:41.710Z,0.50
2023-03-01T01:54:53.336Z,0.30
2023-03-01T01:59:59.757Z,0.30
2023-03-01T02:05:15.758Z,0.40
2023-03-01T02:10:18.150Z,0.40
2023-03-01T02:15:20.290Z,0.40
2023-03-01T02:20:34.079Z,0.40
2023-03-01T02:25:54.638Z,0.30
2023-03-01T02:31:14.880Z,0.30
2023-03-01T02:36:20.286Z,0.20
2023-03-01T02:41:24.062Z,0.20
2023-03-01T02:46:27.196Z,0.10
2023-03-01T02:52:02.134Z,0.00
2023-03-01T02:57:04.438Z,-0.20
2023-03-01T03:02:08.959Z,-0.20
2023-03-01T03:07:10.807Z,-0.20
2023-03-01T03:12:12.550Z,-0.20
2023-03-01T03:17:14.456Z,-0.30
2023-03-01T03:22:16.295Z,-0.40
2023-03-01T03:27:18.275Z,-0.50
2023-03-01T03:32:20.245Z,-0.60
2023-03-01T03:37:40.566Z,-0.70
2023-03-01T03:42:42.778Z,-0.80
2023-03-01T03:47:45.297Z,-0.90
2023-03-01T03:52:47.083Z,-1.00
2023-03-01T03:57:52.584Z,-1.10
2023-03-01T04:02:57.369Z,-1.20
2023-03-01T04:08:08.192Z,-1.20
2023-03-01T04:13:20.105Z,-1.30
2023-03-01T04:18:24.182Z,-1.30
2023-03-01T04:23:25.985Z,-1.40
2023-03-01T04:28:31.250Z,-1.50
2023-03-01T04:33:32.990Z,-1.60
2023-03-01T04:38:34.882Z,-1.70
2023-03-01T04:43:36.960Z,-1.80
2023-03-01T04:48:40.398Z,-1.80
2023-03-01T04:53:42.966Z,-1.80
2023-03-01T04:58:45.424Z,-1.80
2023-03-01T05:03:52.327Z,-1.90
2023-03-01T05:08:54.140Z,-1.90
2023-03-01T05:13:56.358Z,-1.90
2023-03-01T05:18:59.257Z,-1.90
2023-03-01T05:24:00.978Z,-1.90
2023-03-01T05:29:02.751Z,-2.00
2023-03-01T05:34:05.132Z,-2.00
2023-03-01T05:39:06.845Z,-2.00
2023-03-01T05:44:08.578Z,-2.10
2023-03-01T05:49:10.316Z,-2.10
2023-03-01T05:54:12.079Z,-2.10
2023-03-01T05:59:14.809Z,-2.10
2023-03-01T06:04:16.602Z,-2.20
2023-03-01T06:09:18.366Z,-2.20
2023-03-01T06:14:21.838Z,-2.20
2023-03-01T06:19:23.646Z,-2.20
2023-03-01T06:24:25.505Z,-2.10
2023-03-01T06:29:27.362Z,-2.10
2023-03-01T06:34:29.122Z,-2.00
2023-03-01T06:39:30.865Z,-2.00
2023-03-01T06:44:32.723Z,-1.90
2023-03-01T06:49:34.462Z,-1.60
2023-03-01T06:54:36.347Z,-1.30
2023-03-01T06:59:38.160Z,-1.00
2023-03-01T07:04:40.324Z,-0.60
2023-03-01T07:09:42.093Z,-0.20
2023-03-01T07:14:45.024Z,0.20
2023-03-01T07:19:46.836Z,0.40
2023-03-01T07:24:48.572Z,0.50
2023-03-01T07:29:50.299Z,0.60
2023-03-01T07:34:52.470Z,0.70
2023-03-01T07:39:54.264Z,1.10
2023-03-01T07:44:56.287Z,1.60
2023-03-01T07:49:58.242Z,1.70
2023-03-01T07:54:59.982Z,1.80
2023-03-01T08:00:01.809Z,2.10
2023-03-01T08:05:13.645Z,2.40
2023-03-01T08:10:15.489Z,2.70
2023-03-01T08:15:18.090Z,2.80
2023-03-01T08:20:20.182Z,3.10
2023-03-01T08:25:22.010Z,3.30
2023-03-01T08:30:24.954Z,3.60
2023-03-01T08:35:26.754Z,3.80
2023-03-01T08:40:28.601Z,4.00
2023-03-01T08:45:30.343Z,4.00
2023-03-01T08:50:32.181Z,4.20
2023-03-01T08:55:33.904Z,4.30
2023-03-01T09:00:35.714Z,4.30
2023-03-01T09:05:37.838Z,4.50
2023-03-01T09:10:40.436Z,4.60
2023-03-01T09:15:42.186Z,4.60
2023-03-01T09:20:43.927Z,4.80
2023-03-01T09:25:45.702Z,5.00
2023-03-01T09:30:47.521Z,5.10
2023-03-01T09:35:49.305Z,5.30
2023-03-01T09:40:51.227Z,5.50
2023-03-01T09:45:56.580Z,5.50
2023-03-01T09:50:58.783Z,5.60
2023-03-01T09:56:04.784Z,5.80
2023-03-01T10:01:30.595Z,5.60
2023-03-01T10:06:35.389Z,5.60
2023-03-01T10:11:40.447Z,5.80
2023-03-01T10:16:55.793Z,5.70
2023-03-01T10:22:06.463Z,5.90
2023-03-01T10:27:20.283Z,6.00
2023-03-01T10:32:25.090Z,6.20
2023-03-01T10:37:28.273Z,6.40
2023-03-01T10:42:36.418Z,6.40
2023-03-01T10:47:38.168Z,6.40
2023-03-01T10:52:42.627Z,6.50
2023-03-01T10:57:44.366Z,6.60
2023-03-01T11:03:03.974Z,6.70
2023-03-01T11:08:05.947Z,6.80
2023-03-01T11:13:19.108Z,6.90
2023-03-01T11:18:34.025Z,7.00
2023-03-01T11:23:46.048Z,7.20
2023-03-01T11:28:54.582Z,7.20
2023-03-01T11:34:13.901Z,7.20
2023-03-01T11:39:40.549Z,7.40
2023-03-01T11:44:45.319Z,7.50
2023-03-01T11:50:12.621Z,7.70
2023-03-01T11:55:45.742Z,7.80
2023-03-01T12:01:32.476Z,8.00
2023-03-01T12:06:43.699Z,8.00
2023-03-01T12:12:01.252Z,8.00
2023-03-01T12:17:34.078Z,7.90
2023-03-01T12:22:45.736Z,8.20
2023-03-01T12:28:04.967Z,8.40
2023-03-01T12:33:23.757Z,8.60
2023-03-01T12:38:52.748Z,8.70
2023-03-01T12:43:54.484Z,8.90
2023-03-01T12:49:02.326Z,9.00
2023-03-01T12:54:24.094Z,9.20
2023-03-01T12:59:38.428Z,9.30
2023-03-01T13:04:58.463Z,9.40
2023-03-01T13:10:30.477Z,9.50
2023-03-01T13:15:36.555Z,9.50
2023-03-01T13:20:44.362Z,9.70
2023-03-01T13:26:01.024Z,9.70
2023-03-01T13:31:04.984Z,9.80
2023-03-01T13:36:09.587Z,9.90
2023-03-01T13:41:11.993Z,9.80
2023-03-01T13:46:20.767Z,10.00
2023-03-01T13:51:28.752Z,10.10
2023-03-01T13:56:38.577Z,10.20
2023-03-01T14:01:42.480Z,9.90
2023-03-01T14:06:45.447Z,9.80
2023-03-01T14:12:28.432Z,9.70
2023-03-01T14:18:11.071Z,9.70
2023-03-01T14:23:16.802Z,9.50
2023-03-01T14:28:29.656Z,9.40
2023-03-01T14:33:42.164Z,9.30
2023-03-01T14:38:46.325Z,9.20
2023-03-01T14:44:03.112Z,9.10
2023-03-01T14:49:13.580Z,9.20
2023-03-01T14:54:45.709Z,8.90
2023-03-01T14:59:48.764Z,8.80
2023-03-01T15:04:54.054Z,8.80
2023-03-01T15:09:56.132Z,8.90
2023-03-01T15:15:04.181Z,8.90
2023-03-01T15:20:28.456Z,8.70
2023-03-01T15:25:32.290Z,8.60
2023-03-01T15:30:38.144Z,8.50
2023-03-01T15:35:46.566Z,8.40
2023-03-01T15:40:50.885Z,8.30
2023-03-01T15:45:59.122Z,8.20
2023-03-01T15:51:02.485Z,7.90
2023-03-01T15:56:04.512Z,7.60
2023-03-01T16:01:14.119Z,7.40
2023-03-01T16:06:15.993Z,7.20
2023-03-01T16:11:20.817Z,7.00
2023-03-01T16:16:23.554Z,6.90
2023-03-01T16:21:25.947Z,6.80
2023-03-01T16:26:27.783Z,6.70
2023-03-01T16:31:30.502Z,6.60
2023-03-01T16:36:32.643Z,6.40
2023-03-01T16:41:34.442Z,6.30
2023-03-01T16:46:36.296Z,6.20
2023-03-01T16:51:38.091Z,6.00
2023-03-01T16:56:40.588Z,5.90
2023-03-01T17:01:42.557Z,5.70
2023-03-01T17:06:44.418Z,5.50
2023-03-01T17:11:46.188Z,5.20
2023-03-01T17:16:48.017Z,5.10
2023-03-01T17:21:50.032Z,5.00
2023-03-01T17:26:51.826Z,4.90
2023-03-01T17:31:55.736Z,4.70
2023-03-01T17:36:57.756Z,4.60
2023-03-01T17:41:59.468Z,4.70
2023-03-01T17:47:02.562Z,4.70
2023-03-01T17:52:04.738Z,4.60
2023-03-01T17:57:06.576Z,4.40
2023-03-01T18:02:10.448Z,4.50
2023-03-01T18:07:12.315Z,4.30
2023-03-01T18:12:14.024Z,4.20
2023-03-01T18:17:15.862Z,4.20
2023-03-01T18:22:18.035Z,4.50
2023-03-01T18:27:19.809Z,4.70
2023-03-01T18:32:22.087Z,4.70
2023-03-01T18:37:24.829Z,4.70
2023-03-01T18:42:26.668Z,4.70
2023-03-01T18:47:28.412Z,4.70
2023-03-01T18:52:30.210Z,4.60
2023-03-01T18:57:31.932Z,4.60
2023-03-01T19:02:33.724Z,4.50
2023-03-01T19:07:35.506Z,4.30
2023-03-01T19:12:37.325Z,4.10
2023-03-01T19:17:40.270Z,4.10
2023-03-01T19:22:42.027Z,4.00
2023-03-01T19:27:43.835Z,3.90
2023-03-01T19:32:45.580Z,3.70
2023-03-01T19:37:47.382Z,3.60
2023-03-01T19:42:49.142Z,3.40
2023-03-01T19:47:52.134Z,3.10
2023-03-01T19:52:54.058Z,2.90
2023-03-01T19:57:55.856Z,2.80
2023-03-01T20:02:57.808Z,2.70
2023-03-01T20:07:59.557Z,2.60
2023-03-01T20:13:04.260Z,2.50
2023-03-01T20:18:06.164Z,2.40
2023-03-01T20:23:07.964Z,2.50
2023-03-01T20:28:09.842Z,2.90
2023-03-01T20:33:11.908Z,3.00
2023-03-01T20:38:13.627Z,3.20
2023-03-01T20:43:15.390Z,3.10
2023-03-01T20:48:17.126Z,2.90
2023-03-01T20:53:18.885Z,2.60
2023-03-01T20:58:20.781Z,2.30
2023-03-01T21:03:22.571Z,2.10
2023-03-01T21:08:24.698Z,1.80
2023-03-01T21:13:27.449Z,1.80
2023-03-01T21:18:30.208Z,1.80
2023-03-01T21:23:35.134Z,1.70
2023-03-01T21:28:38.069Z,1.70
2023-03-01T21:33:43.078Z,1.80
2023-03-01T21:38:46.970Z,1.70
2023-03-01T21:43:50.534Z,1.60
2023-03-01T21:48:54.742Z,1.50
2023-03-01T21:53:57.234Z,1.50
2023-03-01T21:58:59.103Z,1.40
2023-03-01T22:04:01.686Z,1.40
2023-03-01T22:09:07.524Z,1.70
2023-03-01T22:14:09.442Z,1.90
2023-03-01T22:19:12.615Z,2.20
2023-03-01T22:24:14.977Z,2.50
2023-03-01T22:29:22.240Z,3.00
2023-03-01T22:34:24.387Z,3.20
2023-03-01T22:39:26.163Z,3.50
2023-03-01T22:44:28.163Z,3.80
2023-03-01T22:49:29.886Z,4.00
2023-03-01T22:54:32.305Z,4.40
2023-03-01T22:59:34.071Z,4.40
2023-03-01T23:04:35.844Z,4.50
2023-03-01T23:09:37.634Z,4.60
2023-03-01T23:14:40.596Z,4.70
2023-03-01T23:19:42.378Z,4.80
2023-03-01T23:24:44.178Z,4.70
2023-03-01T23:29:46.147Z,4.60
2023-03-01T23:34:47.931Z,4.50
2023-03-01T23:39:49.744Z,4.70
2023-03-01T23:44:51.570Z,4.60
2023-03-01T23:49:53.335Z,4.60
2023-03-01T23:54:55.096Z,4.70
2023-03-01T23:59:56.890Z,4.60
